createdAt,value
2018-07-08T00:01:27.343Z,99.20
2018-07-08T00:03:55.617Z,99.00
2018-07-08T00:06:23.869Z,99.20
2018-07-08T00:08:52.090Z,99.30
2018-07-08T00:13:48.342Z,99.90
2018-07-08T00:16:16.594Z,99.90
2018-07-08T00:18:45.150Z,99.90
2018-07-08T00:21:13.381Z,99.90
2018-07-08T00:23:41.853Z,99.90
2018-07-08T00:26:10.090Z,99.90
2018-07-08T00:28:38.326Z,99.90
2018-07-08T00:31:06.745Z,99.90
2018-07-08T00:33:34.994Z,99.90
2018-07-08T00:36:03.258Z,99.90
2018-07-08T00:38:31.506Z,99.90
2018-07-08T00:40:59.787Z,99.90
2018-07-08T00:45:55.978Z,99.90
2018-07-08T00:48:24.217Z,99.90
2018-07-08T00:50:52.438Z,99.90
2018-07-08T00:53:20.811Z,99.90
2018-07-08T00:55:49.037Z,99.90
2018-07-08T00:58:17.282Z,99.90
2018-07-08T01:00:45.552Z,99.90
2018-07-08T01:03:13.828Z,99.90
2018-07-08T01:05:42.055Z,99.90
2018-07-08T01:10:38.287Z,99.90
2018-07-08T01:13:06.532Z,99.90
2018-07-08T01:15:34.790Z,99.90
2018-07-08T01:18:03.038Z,99.90
2018-07-08T01:20:31.334Z,99.90
2018-07-08T01:22:59.620Z,99.90
2018-07-08T01:25:39.162Z,99.90
2018-07-08T01:28:07.420Z,99.90
2018-07-08T01:30:35.646Z,99.90
2018-07-08T01:33:03.937Z,99.90
2018-07-08T01:35:32.224Z,99.90
2018-07-08T01:38:00.464Z,99.90
2018-07-08T01:40:28.754Z,99.90
2018-07-08T01:42:57.066Z,99.90
2018-07-08T01:45:25.292Z,99.90
2018-07-08T01:47:53.515Z,99.90
2018-07-08T01:50:21.839Z,99.90
2018-07-08T01:52:50.110Z,99.90
2018-07-08T01:55:18.339Z,99.90
2018-07-08T01:57:46.570Z,99.90
2018-07-08T02:00:14.811Z,99.90
2018-07-08T02:02:43.130Z,99.90
2018-07-08T02:05:11.386Z,99.90
2018-07-08T02:07:39.598Z,99.90
2018-07-08T02:10:07.833Z,99.90
2018-07-08T02:12:36.098Z,99.90
2018-07-08T02:15:04.471Z,99.90
2018-07-08T02:17:32.722Z,99.90
2018-07-08T02:20:00.957Z,99.90
2018-07-08T02:22:29.206Z,99.90
2018-07-08T02:24:57.465Z,99.90
2018-07-08T02:27:25.682Z,99.90
2018-07-08T02:29:53.901Z,99.90
2018-07-08T02:32:22.126Z,99.90
2018-07-08T02:34:51.467Z,99.90
2018-07-08T02:37:19.702Z,99.90
2018-07-08T02:39:48.046Z,99.90
2018-07-08T02:42:16.322Z,99.90
2018-07-08T02:44:44.627Z,99.90
2018-07-08T02:47:12.887Z,99.90
2018-07-08T02:49:41.138Z,99.90
2018-07-08T02:52:09.378Z,99.90
2018-07-08T02:54:37.605Z,99.90
2018-07-08T02:57:05.934Z,99.90
2018-07-08T02:59:34.194Z,99.90
2018-07-08T03:02:02.407Z,99.90
2018-07-08T03:04:30.626Z,99.90
2018-07-08T03:06:58.898Z,99.90
2018-07-08T03:09:27.099Z,99.90
2018-07-08T03:11:55.328Z,99.90
2018-07-08T03:14:23.565Z,99.90
2018-07-08T03:16:51.756Z,99.90
2018-07-08T03:19:20.181Z,99.90
2018-07-08T03:21:48.457Z,99.90
2018-07-08T03:24:16.678Z,99.90
2018-07-08T03:26:44.914Z,99.90
2018-07-08T03:29:13.164Z,99.90
2018-07-08T03:31:41.483Z,99.90
2018-07-08T03:34:09.717Z,99.90
2018-07-08T03:36:37.926Z,99.90
2018-07-08T03:39:06.527Z,99.90
2018-07-08T03:41:34.983Z,99.90
2018-07-08T03:44:03.274Z,99.90
2018-07-08T03:46:31.508Z,99.90
2018-07-08T03:48:59.719Z,99.90
2018-07-08T03:51:28.004Z,99.90
2018-07-08T03:53:56.286Z,99.90
2018-07-08T03:56:24.506Z,99.90
2018-07-08T03:58:52.806Z,99.90
2018-07-08T04:01:21.054Z,99.90
2018-07-08T04:03:49.316Z,99.90
2018-07-08T04:08:45.498Z,99.90
2018-07-08T04:11:13.714Z,99.90
2018-07-08T04:13:41.955Z,99.90
2018-07-08T04:16:10.909Z,99.90
2018-07-08T04:21:07.099Z,99.90
2018-07-08T04:23:35.486Z,99.90
2018-07-08T04:26:03.706Z,99.90
2018-07-08T04:28:32.010Z,99.90
2018-07-08T04:31:00.265Z,99.90
2018-07-08T04:33:28.486Z,99.90
2018-07-08T04:35:56.755Z,99.90
2018-07-08T04:38:25.010Z,99.90
2018-07-08T04:40:53.222Z,99.90
2018-07-08T04:43:21.422Z,99.90
2018-07-08T04:45:49.662Z,99.90
2018-07-08T04:48:17.929Z,99.90
2018-07-08T04:50:46.152Z,99.90
2018-07-08T04:53:14.370Z,99.90
2018-07-08T04:55:42.606Z,99.90
2018-07-08T04:58:10.810Z,99.90
2018-07-08T05:00:39.026Z,99.90
2018-07-08T05:03:07.367Z,99.90
2018-07-08T05:05:36.213Z,99.90
2018-07-08T05:08:04.942Z,99.90
2018-07-08T05:10:33.154Z,99.90
2018-07-08T05:13:01.379Z,99.90
2018-07-08T05:15:29.601Z,99.90
2018-07-08T05:17:57.870Z,99.90
2018-07-08T05:20:26.107Z,99.90
2018-07-08T05:22:54.298Z,99.90
2018-07-08T05:25:22.519Z,99.90
2018-07-08T05:27:50.706Z,99.90
2018-07-08T05:30:18.954Z,99.90
2018-07-08T05:32:47.203Z,99.90
2018-07-08T05:35:15.437Z,99.90
2018-07-08T05:37:43.650Z,99.90
2018-07-08T05:40:11.922Z,99.90
2018-07-08T05:42:40.350Z,99.90
2018-07-08T05:45:08.617Z,99.90
2018-07-08T05:47:36.931Z,99.90
2018-07-08T05:50:05.971Z,99.90
2018-07-08T05:52:34.370Z,99.90
2018-07-08T05:55:02.643Z,99.90
2018-07-08T05:57:30.860Z,99.90
2018-07-08T05:59:59.158Z,99.90
2018-07-08T06:02:27.358Z,99.90
2018-07-08T06:04:55.565Z,99.90
2018-07-08T06:09:51.759Z,99.90
2018-07-08T06:12:20.004Z,99.90
2018-07-08T06:14:48.246Z,99.90
2018-07-08T06:17:16.486Z,99.90
2018-07-08T06:19:44.734Z,99.90
2018-07-08T06:22:12.958Z,99.90
2018-07-08T06:24:41.182Z,99.90
2018-07-08T06:27:09.386Z,99.90
2018-07-08T06:29:37.682Z,99.90
2018-07-08T06:32:05.934Z,99.50
2018-07-08T06:34:34.498Z,98.80
2018-07-08T06:37:02.776Z,99.10
2018-07-08T06:39:31.229Z,98.50
2018-07-08T06:41:59.474Z,97.80
2018-07-08T06:44:27.686Z,97.50
2018-07-08T06:46:55.902Z,97.30
2018-07-08T06:49:24.129Z,96.10
2018-07-08T06:51:52.553Z,96.10
2018-07-08T06:54:20.722Z,96.30
2018-07-08T06:56:48.931Z,96.00
2018-07-08T06:59:17.206Z,95.60
2018-07-08T07:01:45.463Z,95.50
2018-07-08T07:04:13.728Z,95.10
2018-07-08T07:06:41.943Z,95.30
2018-07-08T07:09:10.881Z,95.10
2018-07-08T07:11:39.586Z,94.30
2018-07-08T07:14:07.811Z,93.60
2018-07-08T07:16:36.718Z,93.80
2018-07-08T07:19:05.534Z,93.60
2018-07-08T07:21:33.950Z,93.40
2018-07-08T07:24:02.182Z,93.80
2018-07-08T07:26:30.392Z,93.80
2018-07-08T07:28:58.650Z,93.50
2018-07-08T07:31:26.847Z,93.50
2018-07-08T07:33:55.078Z,93.10
2018-07-08T07:36:23.343Z,92.60
2018-07-08T07:38:51.654Z,92.50
2018-07-08T07:41:19.865Z,92.40
2018-07-08T07:43:48.070Z,92.20
2018-07-08T07:46:16.293Z,92.00
2018-07-08T07:48:44.545Z,92.40
2018-07-08T07:51:12.844Z,92.50
2018-07-08T07:53:41.075Z,92.90
2018-07-08T07:56:09.283Z,92.40
2018-07-08T07:58:37.561Z,93.00
2018-07-08T08:01:05.934Z,92.10
2018-07-08T08:03:34.474Z,91.30
2018-07-08T08:06:02.795Z,91.30
2018-07-08T08:08:31.004Z,91.30
2018-07-08T08:10:59.262Z,91.90
2018-07-08T08:13:27.497Z,91.30
2018-07-08T08:15:55.716Z,91.40
2018-07-08T08:18:23.958Z,91.10
2018-07-08T08:20:52.169Z,91.00
2018-07-08T08:23:20.414Z,91.30
2018-07-08T08:25:48.719Z,90.90
2018-07-08T08:28:16.934Z,90.60
2018-07-08T08:33:13.119Z,90.30
2018-07-08T08:35:41.334Z,89.70
2018-07-08T08:38:09.601Z,90.00
2018-07-08T08:40:37.822Z,89.00
2018-07-08T08:43:06.226Z,88.20
2018-07-08T08:45:34.502Z,87.60
2018-07-08T08:48:02.882Z,88.00
2018-07-08T08:50:31.095Z,89.40
2018-07-08T08:52:59.320Z,90.00
2018-07-08T08:55:27.634Z,89.80
2018-07-08T08:57:55.818Z,86.40
2018-07-08T09:00:24.042Z,85.40
2018-07-08T09:02:52.245Z,84.30
2018-07-08T09:05:20.502Z,85.20
2018-07-08T09:07:48.806Z,84.80
2018-07-08T09:10:17.278Z,83.10
2018-07-08T09:12:45.547Z,83.50
2018-07-08T09:15:13.754Z,81.60
2018-07-08T09:17:41.987Z,79.90
2018-07-08T09:20:10.175Z,77.70
2018-07-08T09:22:38.394Z,76.50
2018-07-08T09:25:06.663Z,74.90
2018-07-08T09:27:34.870Z,73.90
2018-07-08T09:30:03.097Z,74.00
2018-07-08T09:32:31.289Z,73.70
2018-07-08T09:34:59.497Z,72.50
2018-07-08T09:37:27.690Z,72.50
2018-07-08T09:39:55.920Z,72.30
2018-07-08T09:44:52.106Z,70.50
2018-07-08T09:47:20.352Z,69.90
2018-07-08T09:49:48.584Z,69.70
2018-07-08T09:52:16.786Z,68.80
2018-07-08T09:54:45.017Z,69.60
2018-07-08T09:57:13.194Z,67.80
2018-07-08T09:59:41.487Z,67.20
2018-07-08T10:02:09.686Z,64.20
2018-07-08T10:04:37.964Z,61.50
2018-07-08T10:07:06.087Z,61.30
2018-07-08T10:09:34.325Z,59.70
2018-07-08T10:12:02.543Z,58.80
2018-07-08T10:14:30.742Z,56.90
2018-07-08T10:16:59.191Z,56.20
2018-07-08T10:19:27.471Z,55.50
2018-07-08T10:21:55.650Z,53.60
2018-07-08T10:24:23.908Z,51.70
2018-07-08T10:28:01.666Z,51.10
2018-07-08T10:30:29.891Z,49.00
2018-07-08T10:32:58.103Z,47.50
2018-07-08T10:35:37.644Z,47.50
2018-07-08T10:38:06.256Z,47.40
2018-07-08T10:40:34.426Z,46.30
2018-07-08T10:45:30.707Z,46.40
2018-07-08T10:47:58.946Z,46.20
2018-07-08T10:52:55.138Z,45.70
2018-07-08T10:55:23.453Z,45.40
2018-07-08T10:57:51.594Z,45.40
2018-07-08T11:00:19.992Z,44.60
2018-07-08T11:02:48.247Z,44.20
2018-07-08T11:05:16.589Z,44.30
2018-07-08T11:07:44.785Z,44.20
2018-07-08T11:10:12.999Z,42.30
2018-07-08T11:12:41.218Z,41.90
2018-07-08T11:15:09.422Z,40.50
2018-07-08T11:17:37.634Z,40.30
2018-07-08T11:20:05.885Z,38.10
2018-07-08T11:22:34.175Z,37.10
2018-07-08T11:25:02.438Z,36.40
2018-07-08T11:27:30.654Z,35.90
2018-07-08T11:29:58.909Z,34.70
2018-07-08T11:32:27.142Z,35.10
2018-07-08T11:34:55.390Z,34.40
2018-07-08T11:37:23.678Z,33.50
2018-07-08T11:39:51.901Z,30.70
2018-07-08T11:42:20.169Z,28.80
2018-07-08T11:44:48.654Z,27.20
2018-07-08T11:47:17.002Z,26.30
2018-07-08T11:49:45.361Z,25.50
2018-07-08T11:52:13.520Z,26.20
2018-07-08T11:54:41.729Z,27.20
2018-07-08T11:57:09.931Z,27.20
2018-07-08T11:59:38.179Z,27.10
2018-07-08T12:02:06.467Z,27.80
2018-07-08T12:04:34.712Z,27.60
2018-07-08T12:07:03.168Z,28.20
2018-07-08T12:09:31.398Z,28.40
2018-07-08T12:11:59.650Z,28.40
2018-07-08T12:14:28.612Z,27.90
2018-07-08T12:16:56.839Z,27.60
2018-07-08T12:19:25.067Z,27.30
2018-07-08T12:21:53.289Z,27.80
2018-07-08T12:24:21.567Z,25.80
2018-07-08T12:26:50.038Z,24.40
2018-07-08T12:29:18.545Z,23.40
2018-07-08T12:31:48.546Z,22.80
2018-07-08T12:34:16.742Z,22.90
2018-07-08T12:36:45.058Z,23.20
2018-07-08T12:39:13.884Z,23.40
2018-07-08T12:41:42.623Z,23.00
2018-07-08T12:44:10.961Z,22.20
2018-07-08T12:46:39.490Z,21.60
2018-07-08T12:49:07.801Z,22.50
2018-07-08T12:51:36.152Z,21.90
2018-07-08T12:56:32.529Z,21.50
2018-07-08T12:59:00.887Z,21.50
2018-07-08T13:01:29.034Z,21.40
2018-07-08T13:03:57.357Z,22.40
2018-07-08T13:06:25.594Z,23.50
2018-07-08T13:08:53.826Z,24.30
2018-07-08T13:11:22.048Z,23.30
2018-07-08T13:13:50.412Z,21.20
2018-07-08T13:16:18.683Z,20.10
2018-07-08T13:18:46.902Z,19.10
2018-07-08T13:21:15.122Z,18.60
2018-07-08T13:23:43.410Z,18.60
2018-07-08T13:26:11.728Z,18.90
2018-07-08T13:28:39.926Z,18.70
2018-07-08T13:31:08.192Z,19.40
2018-07-08T13:33:36.451Z,19.20
2018-07-08T13:36:04.791Z,18.80
2018-07-08T13:38:33.021Z,18.50
2018-07-08T13:41:01.246Z,18.60
2018-07-08T13:43:29.475Z,18.60
2018-07-08T13:45:57.683Z,19.40
2018-07-08T13:48:25.926Z,19.90
2018-07-08T13:50:54.130Z,20.50
2018-07-08T13:53:22.366Z,19.90
2018-07-08T13:55:50.918Z,19.10
2018-07-08T13:58:19.202Z,17.80
2018-07-08T14:03:15.497Z,17.70
2018-07-08T14:05:43.686Z,17.30
2018-07-08T14:08:11.910Z,17.10
2018-07-08T14:10:40.476Z,17.30
2018-07-08T14:15:37.389Z,16.10
2018-07-08T14:18:05.678Z,16.70
2018-07-08T14:20:34.211Z,15.70
2018-07-08T14:23:02.358Z,15.50
2018-07-08T14:27:58.587Z,15.80
2018-07-08T14:30:26.783Z,14.90
2018-07-08T14:32:55.016Z,15.40
2018-07-08T14:35:23.273Z,15.10
2018-07-08T14:37:51.485Z,15.20
2018-07-08T14:40:19.738Z,15.10
2018-07-08T14:42:48.247Z,15.10
2018-07-08T14:45:16.466Z,14.80
2018-07-08T14:47:44.682Z,14.80
2018-07-08T14:50:12.902Z,14.90
2018-07-08T14:52:41.218Z,14.80
2018-07-08T14:55:09.388Z,15.00
2018-07-08T14:57:37.602Z,14.80
2018-07-08T15:00:05.910Z,15.20
2018-07-08T15:02:34.155Z,15.30
2018-07-08T15:05:02.410Z,15.10
2018-07-08T15:07:30.738Z,14.70
2018-07-08T15:09:59.034Z,14.90
2018-07-08T15:12:27.243Z,14.50
2018-07-08T15:14:55.602Z,15.60
2018-07-08T15:17:23.838Z,16.40
2018-07-08T15:19:52.083Z,16.20
2018-07-08T15:22:20.326Z,15.90
2018-07-08T15:24:48.540Z,16.10
2018-07-08T15:27:16.765Z,16.00
2018-07-08T15:29:44.955Z,16.40
2018-07-08T15:32:13.163Z,16.10
2018-07-08T15:34:41.398Z,15.90
2018-07-08T15:37:09.675Z,15.30
2018-07-08T15:39:37.990Z,14.90
2018-07-08T15:42:06.229Z,14.80
2018-07-08T15:44:34.497Z,15.50
2018-07-08T15:47:02.782Z,15.70
2018-07-08T15:49:31.070Z,16.00
2018-07-08T15:51:59.221Z,16.90
2018-07-08T15:54:27.686Z,18.30
2018-07-08T15:56:56.267Z,18.20
2018-07-08T15:59:24.648Z,17.50
2018-07-08T16:01:52.886Z,17.30
2018-07-08T16:04:21.098Z,16.90
2018-07-08T16:06:49.373Z,16.70
2018-07-08T16:09:17.650Z,16.10
2018-07-08T16:11:45.886Z,15.80
2018-07-08T16:14:14.082Z,15.30
2018-07-08T16:16:42.313Z,15.20
2018-07-08T16:19:10.530Z,15.10
2018-07-08T16:21:38.802Z,14.80
2018-07-08T16:24:07.017Z,14.60
2018-07-08T16:26:35.259Z,14.70
2018-07-08T16:29:03.543Z,14.80
2018-07-08T16:31:31.786Z,14.70
2018-07-08T16:34:00.067Z,14.60
2018-07-08T16:36:28.295Z,14.80
2018-07-08T16:38:56.590Z,14.80
2018-07-08T16:41:24.868Z,15.00
2018-07-08T16:43:53.238Z,15.20
2018-07-08T16:46:21.530Z,15.20
2018-07-08T16:48:49.878Z,15.30
2018-07-08T16:51:18.238Z,16.00
2018-07-08T16:53:46.430Z,16.70
2018-07-08T16:56:14.895Z,16.60
2018-07-08T16:58:43.102Z,16.90
2018-07-08T17:01:11.326Z,16.40
2018-07-08T17:03:39.644Z,15.90
2018-07-08T17:06:07.858Z,15.80
2018-07-08T17:08:36.096Z,15.80
2018-07-08T17:11:04.338Z,15.50
2018-07-08T17:13:32.587Z,15.70
2018-07-08T17:16:00.802Z,16.00
2018-07-08T17:18:29.350Z,16.10
2018-07-08T17:20:57.608Z,16.50
2018-07-08T17:23:25.883Z,17.60
2018-07-08T17:25:54.261Z,19.30
2018-07-08T17:28:22.586Z,21.40
2018-07-08T17:30:50.815Z,23.20
2018-07-08T17:33:19.218Z,24.70
2018-07-08T17:35:47.289Z,26.10
2018-07-08T17:40:43.800Z,28.10
2018-07-08T17:43:12.056Z,28.50
2018-07-08T17:45:40.295Z,29.00
2018-07-08T17:48:08.626Z,29.60
2018-07-08T17:50:36.862Z,30.20
2018-07-08T17:53:05.116Z,30.90
2018-07-08T17:55:33.382Z,31.80
2018-07-08T17:58:01.611Z,31.40
2018-07-08T18:00:29.867Z,31.80
2018-07-08T18:02:58.308Z,32.00
2018-07-08T18:05:26.541Z,32.60
2018-07-08T18:07:54.793Z,32.80
2018-07-08T18:10:23.093Z,33.30
2018-07-08T18:12:51.385Z,33.70
2018-07-08T18:15:19.695Z,34.00
2018-07-08T18:17:47.950Z,33.90
2018-07-08T18:20:16.161Z,33.80
2018-07-08T18:22:44.401Z,33.60
2018-07-08T18:25:12.787Z,34.20
2018-07-08T18:27:41.018Z,34.40
2018-07-08T18:30:09.264Z,34.50
2018-07-08T18:32:37.523Z,34.50
2018-07-08T18:35:05.921Z,35.00
2018-07-08T18:40:02.160Z,35.80
2018-07-08T18:42:30.394Z,36.10
2018-07-08T18:44:58.598Z,36.80
2018-07-08T18:47:26.883Z,37.50
2018-07-08T18:49:55.076Z,36.90
2018-07-08T18:52:24.164Z,36.90
2018-07-08T18:54:52.419Z,37.10
2018-07-08T18:57:20.726Z,37.30
2018-07-08T18:59:49.030Z,37.60
2018-07-08T19:02:17.239Z,37.50
2018-07-08T19:04:45.510Z,37.50
2018-07-08T19:07:13.738Z,37.70
2018-07-08T19:09:42.342Z,37.70
2018-07-08T19:12:10.598Z,37.90
2018-07-08T19:14:38.823Z,38.00
2018-07-08T19:17:07.051Z,38.40
2018-07-08T19:19:35.305Z,38.70
2018-07-08T19:22:03.541Z,38.50
2018-07-08T19:24:31.874Z,38.60
2018-07-08T19:27:00.108Z,38.90
2018-07-08T19:29:28.472Z,39.10
2018-07-08T19:31:56.674Z,39.30
2018-07-08T19:34:24.906Z,39.30
2018-07-08T19:36:53.222Z,39.80
2018-07-08T19:39:21.455Z,40.00
2018-07-08T19:41:49.783Z,40.10
2018-07-08T19:44:18.963Z,40.30
2018-07-08T19:46:47.238Z,40.50
2018-07-08T19:49:15.502Z,40.90
2018-07-08T19:51:43.710Z,41.10
2018-07-08T19:54:11.963Z,40.90
2018-07-08T19:56:40.546Z,41.20
2018-07-08T19:59:08.803Z,41.00
2018-07-08T20:01:36.980Z,41.00
2018-07-08T20:04:05.570Z,41.00
2018-07-08T20:06:33.854Z,41.10
2018-07-08T20:09:02.109Z,41.40
2018-07-08T20:11:30.315Z,41.50
2018-07-08T20:13:58.670Z,41.60
2018-07-08T20:16:26.924Z,41.90
2018-07-08T20:18:55.133Z,42.00
2018-07-08T20:21:23.630Z,42.20
2018-07-08T20:23:51.583Z,42.20
2018-07-08T20:26:19.875Z,42.40
2018-07-08T20:28:48.070Z,42.40
2018-07-08T20:31:16.324Z,42.60
2018-07-08T20:33:44.504Z,42.50
2018-07-08T20:36:12.702Z,42.80
2018-07-08T20:38:40.931Z,42.70
2018-07-08T20:41:09.163Z,42.80
2018-07-08T20:43:37.614Z,43.00
2018-07-08T20:48:34.107Z,43.10
2018-07-08T20:51:02.362Z,42.90
2018-07-08T20:53:30.572Z,43.10
2018-07-08T20:55:59.934Z,43.10
2018-07-08T20:58:28.150Z,42.80
2018-07-08T21:00:56.666Z,42.90
2018-07-08T21:03:24.933Z,43.00
2018-07-08T21:05:53.185Z,43.20
2018-07-08T21:08:21.376Z,44.00
2018-07-08T21:10:49.602Z,44.30
2018-07-08T21:13:17.822Z,44.80
2018-07-08T21:15:46.066Z,45.20
2018-07-08T21:18:14.273Z,45.10
2018-07-08T21:20:42.466Z,45.40
2018-07-08T21:23:10.669Z,45.40
2018-07-08T21:25:38.915Z,45.00
2018-07-08T21:28:07.129Z,45.10
2018-07-08T21:30:35.329Z,45.10
2018-07-08T21:33:04.138Z,45.20
2018-07-08T21:35:32.338Z,44.70
2018-07-08T21:40:28.521Z,44.30
2018-07-08T21:42:56.951Z,43.60
2018-07-08T21:45:25.546Z,44.10
2018-07-08T21:50:21.910Z,44.00
2018-07-08T21:52:50.092Z,43.80
2018-07-08T21:55:18.307Z,43.60
2018-07-08T21:57:46.506Z,43.50
2018-07-08T22:00:14.833Z,43.10
2018-07-08T22:02:44.447Z,43.10
2018-07-08T22:05:12.690Z,43.10
2018-07-08T22:07:46.439Z,42.70
2018-07-08T22:10:14.654Z,42.90
2018-07-08T22:12:42.866Z,43.00
2018-07-08T22:15:11.095Z,42.70
2018-07-08T22:17:39.323Z,42.80
2018-07-08T22:20:07.554Z,45.40
2018-07-08T22:22:35.810Z,45.70
2018-07-08T22:25:04.115Z,45.70
2018-07-08T22:27:32.373Z,46.40
2018-07-08T22:30:00.647Z,47.70
2018-07-08T22:32:28.909Z,48.60
2018-07-08T22:34:57.165Z,48.60
2018-07-08T22:37:25.386Z,45.30
2018-07-08T22:39:53.605Z,44.50
2018-07-08T22:42:21.816Z,44.50
2018-07-08T22:44:50.035Z,44.60
2018-07-08T22:47:18.233Z,44.40
2018-07-08T22:49:46.454Z,44.70
2018-07-08T22:52:15.020Z,45.70
2018-07-08T22:54:43.292Z,44.70
2018-07-08T22:57:11.601Z,44.90
2018-07-08T23:02:24.537Z,46.90
2018-07-08T23:04:52.750Z,46.90
2018-07-08T23:07:21.030Z,47.50
2018-07-08T23:09:49.262Z,47.70
2018-07-08T23:12:17.624Z,48.20
2018-07-08T23:14:45.846Z,48.90
2018-07-08T23:17:14.061Z,48.70
2018-07-08T23:19:42.290Z,48.70
2018-07-08T23:22:11.690Z,49.10
2018-07-08T23:24:39.943Z,50.10
2018-07-08T23:27:08.160Z,51.00
2018-07-08T23:29:36.377Z,51.30
2018-07-08T23:32:04.633Z,52.50
2018-07-08T23:34:33.042Z,52.80
2018-07-08T23:37:01.297Z,53.20
2018-07-08T23:39:29.514Z,55.70
2018-07-08T23:41:57.748Z,56.20
2018-07-08T23:44:25.972Z,56.30
2018-07-08T23:46:54.183Z,56.40
2018-07-08T23:49:22.403Z,59.40
2018-07-08T23:51:50.662Z,65.80
2018-07-08T23:54:18.890Z,67.50
2018-07-08T23:56:47.097Z,69.20
2018-07-08T23:59:15.326Z,69.90
